sensor_id;sensor_type;location;lat;lon;timestamp;P1;durP1;ratioP1;P2;durP2;ratioP2
34453;SDS011;60061;52.080;5.312;2022-09-01T00:01:44;2.4;;;1.5;;
34453;SDS011;60061;52.080;5.312;2022-09-01T00:05:04;1.9;;;1.7;;
34453;SDS011;60061;52.080;5.312;2022-09-01T00:06:42;3.1;;;1.6;;
34453;SDS011;60061;52.080;5.312;2022-09-01T00:08:19;1.9;;;1.6;;
34453;SDS011;60061;52.080;5.312;2022-09-01T00:11:34;3.4;;;1.7;;
34453;SDS011;60061;52.080;5.312;2022-09-01T00:13:11;1.9;;;1.5;;
34453;SDS011;60061;52.080;5.312;2022-09-01T00:14:47;2.31;;;1.7;;
34453;SDS011;60061;52.080;5.312;2022-09-01T00:16:24;2.1;;;1.7;;
34453;SDS011;60061;52.080;5.312;2022-09-01T00:19:38;3.3;;;1.6;;
34453;SDS011;60061;52.080;5.312;2022-09-01T00:21:15;2.6;;;1.8;;
34453;SDS011;60061;52.080;5.312;2022-09-01T00:22:54;3.0;;;1.7;;
34453;SDS011;60061;52.080;5.312;2022-09-01T00:26:08;3.7;;;1.9;;
34453;SDS011;60061;52.080;5.312;2022-09-01T00:27:44;2.6;;;1.8;;
34453;SDS011;60061;52.080;5.312;2022-09-01T00:29:20;2.0;;;1.8;;
34453;SDS011;60061;52.080;5.312;2022-09-01T00:30:57;3.3;;;2.21;;
34453;SDS011;60061;52.080;5.312;2022-09-01T00:34:10;2.31;;;2.0;;
34453;SDS011;60061;52.080;5.312;2022-09-01T00:35:46;2.0;;;1.8;;
34453;SDS011;60061;52.080;5.312;2022-09-01T00:37:23;3.0;;;1.7;;
34453;SDS011;60061;52.080;5.312;2022-09-01T00:40:36;4.8;;;2.0;;
34453;SDS011;60061;52.080;5.312;2022-09-01T00:42:12;2.9;;;2.0;;
34453;SDS011;60061;52.080;5.312;2022-09-01T00:43:49;4.2;;;1.9;;
34453;SDS011;60061;52.080;5.312;2022-09-01T00:47:06;3.2;;;1.9;;
34453;SDS011;60061;52.080;5.312;2022-09-01T00:48:42;5.0;;;2.21;;
34453;SDS011;60061;52.080;5.312;2022-09-01T00:50:18;3.6;;;2.0;;
34453;SDS011;60061;52.080;5.312;2022-09-01T00:51:56;3.7;;;1.9;;
34453;SDS011;60061;52.080;5.312;2022-09-01T00:55:24;4.3;;;1.9;;
34453;SDS011;60061;52.080;5.312;2022-09-01T00:57:03;4.5;;;2.0;;
34453;SDS011;60061;52.080;5.312;2022-09-01T00:58:41;4.1;;;2.0;;
34453;SDS011;60061;52.080;5.312;2022-09-01T01:00:19;3.2;;;1.8;;
34453;SDS011;60061;52.080;5.312;2022-09-01T01:03:36;3.3;;;1.8;;
34453;SDS011;60061;52.080;5.312;2022-09-01T01:05:14;3.2;;;2.0;;
34453;SDS011;60061;52.080;5.312;2022-09-01T01:06:58;3.2;;;2.1;;
34453;SDS011;60061;52.080;5.312;2022-09-01T01:08:36;3.9;;;1.9;;
34453;SDS011;60061;52.080;5.312;2022-09-01T01:11:59;3.8;;;2.0;;
34453;SDS011;60061;52.080;5.312;2022-09-01T01:13:47;4.2;;;1.9;;
34453;SDS011;60061;52.080;5.312;2022-09-01T01:15:26;5.7;;;2.0;;
34453;SDS011;60061;52.080;5.312;2022-09-01T01:17:03;3.1;;;2.21;;
34453;SDS011;60061;52.080;5.312;2022-09-01T01:23:14;3.3;;;2.1;;
34453;SDS011;60061;52.080;5.312;2022-09-01T01:24:57;3.6;;;2.0;;
34453;SDS011;60061;52.080;5.312;2022-09-01T01:26:33;3.2;;;2.1;;
34453;SDS011;60061;52.080;5.312;2022-09-01T01:28:12;2.6;;;2.21;;
34453;SDS011;60061;52.080;5.312;2022-09-01T01:29:52;3.5;;;2.1;;
34453;SDS011;60061;52.080;5.312;2022-09-01T01:33:08;2.6;;;2.0;;
34453;SDS011;60061;52.080;5.312;2022-09-01T01:34:46;2.6;;;2.0;;
34453;SDS011;60061;52.080;5.312;2022-09-01T01:36:31;3.9;;;2.0;;
34453;SDS011;60061;52.080;5.312;2022-09-01T01:38:10;4.8;;;2.1;;
34453;SDS011;60061;52.080;5.312;2022-09-01T01:41:23;4.5;;;2.0;;
34453;SDS011;60061;52.080;5.312;2022-09-01T01:43:01;4.1;;;2.1;;
34453;SDS011;60061;52.080;5.312;2022-09-01T01:44:41;3.4;;;2.1;;
34453;SDS011;60061;52.080;5.312;2022-09-01T01:46:18;3.4;;;2.1;;
34453;SDS011;60061;52.080;5.312;2022-09-01T01:49:34;2.4;;;2.1;;
34453;SDS011;60061;52.080;5.312;2022-09-01T01:51:12;2.8;;;2.1;;
34453;SDS011;60061;52.080;5.312;2022-09-01T01:52:53;4.2;;;2.21;;
34453;SDS011;60061;52.080;5.312;2022-09-01T01:56:10;4.1;;;2.31;;
34453;SDS011;60061;52.080;5.312;2022-09-01T01:57:49;3.0;;;2.21;;
34453;SDS011;60061;52.080;5.312;2022-09-01T01:59:25;2.7;;;2.31;;
34453;SDS011;60061;52.080;5.312;2022-09-01T02:01:02;2.9;;;2.21;;
34453;SDS011;60061;52.080;5.312;2022-09-01T02:04:18;3.9;;;2.31;;
34453;SDS011;60061;52.080;5.312;2022-09-01T02:05:55;4.3;;;2.6;;
34453;SDS011;60061;52.080;5.312;2022-09-01T02:07:31;3.9;;;2.21;;
34453;SDS011;60061;52.080;5.312;2022-09-01T02:10:44;3.9;;;2.21;;
34453;SDS011;60061;52.080;5.312;2022-09-01T02:12:24;3.5;;;2.21;;
34453;SDS011;60061;52.080;5.312;2022-09-01T02:14:00;4.1;;;2.21;;
34453;SDS011;60061;52.080;5.312;2022-09-01T02:15:43;3.7;;;2.0;;
34453;SDS011;60061;52.080;5.312;2022-09-01T02:18:58;4.0;;;2.1;;
34453;SDS011;60061;52.080;5.312;2022-09-01T02:20:36;2.6;;;2.1;;
34453;SDS011;60061;52.080;5.312;2022-09-01T02:22:12;4.5;;;2.31;;
34453;SDS011;60061;52.080;5.312;2022-09-01T02:25:30;4.3;;;2.31;;
34453;SDS011;60061;52.080;5.312;2022-09-01T02:27:06;3.7;;;2.4;;
34453;SDS011;60061;52.080;5.312;2022-09-01T02:28:44;4.5;;;2.21;;
34453;SDS011;60061;52.080;5.312;2022-09-01T02:30:25;2.7;;;2.1;;
34453;SDS011;60061;52.080;5.312;2022-09-01T02:33:37;3.0;;;2.21;;
34453;SDS011;60061;52.080;5.312;2022-09-01T02:35:18;3.2;;;2.4;;
34453;SDS011;60061;52.080;5.312;2022-09-01T02:36:55;3.6;;;2.31;;
34453;SDS011;60061;52.080;5.312;2022-09-01T02:38:32;5.0;;;2.7;;
34453;SDS011;60061;52.080;5.312;2022-09-01T02:41:46;3.9;;;2.31;;
34453;SDS011;60061;52.080;5.312;2022-09-01T02:43:22;3.7;;;2.4;;
34453;SDS011;60061;52.080;5.312;2022-09-01T02:44:59;3.1;;;2.21;;
34453;SDS011;60061;52.080;5.312;2022-09-01T02:48:23;5.2;;;2.6;;
34453;SDS011;60061;52.080;5.312;2022-09-01T02:50:02;2.8;;;2.31;;
34453;SDS011;60061;52.080;5.312;2022-09-01T02:51:40;3.7;;;2.31;;
34453;SDS011;60061;52.080;5.312;2022-09-01T02:53:19;4.1;;;2.5;;
34453;SDS011;60061;52.080;5.312;2022-09-01T02:56:33;2.8;;;2.31;;
34453;SDS011;60061;52.080;5.312;2022-09-01T02:58:15;4.41;;;2.5;;
34453;SDS011;60061;52.080;5.312;2022-09-01T02:59:57;2.6;;;2.4;;
34453;SDS011;60061;52.080;5.312;2022-09-01T03:01:33;4.5;;;2.6;;
34453;SDS011;60061;52.080;5.312;2022-09-01T03:04:49;3.0;;;2.5;;
34453;SDS011;60061;52.080;5.312;2022-09-01T03:06:33;3.1;;;2.4;;
34453;SDS011;60061;52.080;5.312;2022-09-01T03:08:14;4.5;;;2.5;;
34453;SDS011;60061;52.080;5.312;2022-09-01T03:11:28;4.61;;;2.5;;
34453;SDS011;60061;52.080;5.312;2022-09-01T03:13:11;4.1;;;2.4;;
34453;SDS011;60061;52.080;5.312;2022-09-01T03:14:49;5.11;;;2.31;;
34453;SDS011;60061;52.080;5.312;2022-09-01T03:16:26;4.0;;;2.5;;
34453;SDS011;60061;52.080;5.312;2022-09-01T03:19:44;2.6;;;2.4;;
34453;SDS011;60061;52.080;5.312;2022-09-01T03:21:20;3.1;;;2.31;;
34453;SDS011;60061;52.080;5.312;2022-09-01T03:22:58;5.3;;;2.5;;
34453;SDS011;60061;52.080;5.312;2022-09-01T03:24:35;3.8;;;2.6;;
34453;SDS011;60061;52.080;5.312;2022-09-01T03:27:50;4.3;;;2.7;;
34453;SDS011;60061;52.080;5.312;2022-09-01T03:29:27;3.0;;;2.31;;
34453;SDS011;60061;52.080;5.312;2022-09-01T03:31:04;4.3;;;2.6;;
34453;SDS011;60061;52.080;5.312;2022-09-01T03:34:22;2.8;;;2.5;;
34453;SDS011;60061;52.080;5.312;2022-09-01T03:35:58;4.1;;;2.4;;
34453;SDS011;60061;52.080;5.312;2022-09-01T03:37:36;4.7;;;2.6;;
34453;SDS011;60061;52.080;5.312;2022-09-01T03:39:12;4.7;;;2.6;;
34453;SDS011;60061;52.080;5.312;2022-09-01T03:42:30;2.8;;;2.5;;
34453;SDS011;60061;52.080;5.312;2022-09-01T03:44:06;2.8;;;2.5;;
34453;SDS011;60061;52.080;5.312;2022-09-01T03:45:42;4.3;;;2.6;;
34453;SDS011;60061;52.080;5.312;2022-09-01T03:48:59;3.3;;;2.5;;
34453;SDS011;60061;52.080;5.312;2022-09-01T03:50:39;3.3;;;2.5;;
34453;SDS011;60061;52.080;5.312;2022-09-01T03:52:18;6.3;;;2.7;;
34453;SDS011;60061;52.080;5.312;2022-09-01T03:53:54;5.5;;;3.0;;
34453;SDS011;60061;52.080;5.312;2022-09-01T03:57:10;6.1;;;3.0;;
34453;SDS011;60061;52.080;5.312;2022-09-01T03:58:46;3.8;;;2.5;;
34453;SDS011;60061;52.080;5.312;2022-09-01T04:00:23;4.0;;;2.5;;
34453;SDS011;60061;52.080;5.312;2022-09-01T04:03:39;3.9;;;3.0;;
34453;SDS011;60061;52.080;5.312;2022-09-01T04:05:17;5.11;;;3.2;;
34453;SDS011;60061;52.080;5.312;2022-09-01T04:06:54;4.2;;;3.0;;
34453;SDS011;60061;52.080;5.312;2022-09-01T04:08:30;3.6;;;2.8;;
34453;SDS011;60061;52.080;5.312;2022-09-01T04:11:47;3.7;;;2.8;;
34453;SDS011;60061;52.080;5.312;2022-09-01T04:13:25;4.2;;;2.8;;
34453;SDS011;60061;52.080;5.312;2022-09-01T04:15:07;4.2;;;2.9;;
34453;SDS011;60061;52.080;5.312;2022-09-01T04:19:38;5.0;;;3.0;;
34453;SDS011;60061;52.080;5.312;2022-09-01T04:21:14;3.7;;;2.9;;
34453;SDS011;60061;52.080;5.312;2022-09-01T04:24:29;4.61;;;3.1;;
34453;SDS011;60061;52.080;5.312;2022-09-01T04:26:08;4.1;;;3.1;;
34453;SDS011;60061;52.080;5.312;2022-09-01T04:27:48;5.0;;;3.0;;
34453;SDS011;60061;52.080;5.312;2022-09-01T04:31:08;3.0;;;2.7;;
34453;SDS011;60061;52.080;5.312;2022-09-01T04:32:51;5.4;;;2.8;;
34453;SDS011;60061;52.080;5.312;2022-09-01T04:34:28;4.0;;;3.2;;
34453;SDS011;60061;52.080;5.312;2022-09-01T04:36:11;6.3;;;3.0;;
34453;SDS011;60061;52.080;5.312;2022-09-01T04:37:54;3.1;;;2.8;;
34453;SDS011;60061;52.080;5.312;2022-09-01T04:41:08;4.1;;;3.0;;
34453;SDS011;60061;52.080;5.312;2022-09-01T04:42:44;4.7;;;3.0;;
34453;SDS011;60061;52.080;5.312;2022-09-01T04:44:21;5.5;;;3.0;;
34453;SDS011;60061;52.080;5.312;2022-09-01T04:47:40;5.9;;;2.8;;
34453;SDS011;60061;52.080;5.312;2022-09-01T04:49:19;3.9;;;2.8;;
34453;SDS011;60061;52.080;5.312;2022-09-01T04:50:58;4.1;;;3.3;;
34453;SDS011;60061;52.080;5.312;2022-09-01T04:52:34;4.1;;;3.3;;
34453;SDS011;60061;52.080;5.312;2022-09-01T04:55:52;5.4;;;3.2;;
34453;SDS011;60061;52.080;5.312;2022-09-01T04:57:30;3.8;;;2.7;;
34453;SDS011;60061;52.080;5.312;2022-09-01T04:59:07;4.41;;;3.0;;
34453;SDS011;60061;52.080;5.312;2022-09-01T05:02:26;3.5;;;3.2;;
34453;SDS011;60061;52.080;5.312;2022-09-01T05:04:02;4.0;;;3.1;;
34453;SDS011;60061;52.080;5.312;2022-09-01T05:05:42;3.3;;;2.8;;
34453;SDS011;60061;52.080;5.312;2022-09-01T05:07:20;4.7;;;3.0;;
34453;SDS011;60061;52.080;5.312;2022-09-01T05:10:37;4.5;;;3.0;;
34453;SDS011;60061;52.080;5.312;2022-09-01T05:12:18;4.0;;;2.9;;
34453;SDS011;60061;52.080;5.312;2022-09-01T05:13:56;4.0;;;2.9;;
34453;SDS011;60061;52.080;5.312;2022-09-01T05:15:35;5.6;;;3.0;;
34453;SDS011;60061;52.080;5.312;2022-09-01T05:18:50;16.9;;;4.0;;
34453;SDS011;60061;52.080;5.312;2022-09-01T05:20:29;12.8;;;3.6;;
34453;SDS011;60061;52.080;5.312;2022-09-01T05:22:08;6.9;;;3.8;;
34453;SDS011;60061;52.080;5.312;2022-09-01T05:25:23;5.8;;;3.1;;
34453;SDS011;60061;52.080;5.312;2022-09-01T05:27:00;8.6;;;2.9;;
34453;SDS011;60061;52.080;5.312;2022-09-01T05:28:37;3.5;;;2.8;;
34453;SDS011;60061;52.080;5.312;2022-09-01T05:30:16;26.5;;;4.8;;
34453;SDS011;60061;52.080;5.312;2022-09-01T05:33:31;6.8;;;3.0;;
34453;SDS011;60061;52.080;5.312;2022-09-01T05:35:08;4.5;;;3.1;;
34453;SDS011;60061;52.080;5.312;2022-09-01T05:36:45;4.41;;;3.1;;
34453;SDS011;60061;52.080;5.312;2022-09-01T05:40:02;3.8;;;2.8;;
34453;SDS011;60061;52.080;5.312;2022-09-01T05:41:40;6.1;;;2.7;;
34453;SDS011;60061;52.080;5.312;2022-09-01T05:43:17;5.0;;;3.0;;
34453;SDS011;60061;52.080;5.312;2022-09-01T05:44:53;4.61;;;2.8;;
34453;SDS011;60061;52.080;5.312;2022-09-01T05:48:08;3.7;;;2.9;;
34453;SDS011;60061;52.080;5.312;2022-09-01T05:49:48;5.11;;;2.8;;
34453;SDS011;60061;52.080;5.312;2022-09-01T05:51:27;6.1;;;2.9;;
34453;SDS011;60061;52.080;5.312;2022-09-01T05:54:46;9.31;;;3.0;;
34453;SDS011;60061;52.080;5.312;2022-09-01T05:56:23;3.7;;;3.0;;
34453;SDS011;60061;52.080;5.312;2022-09-01T05:58:01;12.9;;;3.0;;
34453;SDS011;60061;52.080;5.312;2022-09-01T05:59:40;7.0;;;3.1;;
34453;SDS011;60061;52.080;5.312;2022-09-01T06:03:03;6.4;;;3.0;;
34453;SDS011;60061;52.080;5.312;2022-09-01T06:04:43;6.0;;;3.0;;
34453;SDS011;60061;52.080;5.312;2022-09-01T06:06:20;4.1;;;2.9;;
34453;SDS011;60061;52.080;5.312;2022-09-01T06:08:01;4.91;;;2.7;;
34453;SDS011;60061;52.080;5.312;2022-09-01T06:11:17;3.1;;;2.9;;
34453;SDS011;60061;52.080;5.312;2022-09-01T06:12:55;4.61;;;3.1;;
34453;SDS011;60061;52.080;5.312;2022-09-01T06:14:31;5.4;;;3.1;;
34453;SDS011;60061;52.080;5.312;2022-09-01T06:16:08;4.41;;;3.2;;
34453;SDS011;60061;52.080;5.312;2022-09-01T06:19:22;4.8;;;3.0;;
34453;SDS011;60061;52.080;5.312;2022-09-01T06:20:58;3.7;;;2.8;;
34453;SDS011;60061;52.080;5.312;2022-09-01T06:22:39;4.1;;;2.9;;
34453;SDS011;60061;52.080;5.312;2022-09-01T06:25:54;4.8;;;3.0;;
34453;SDS011;60061;52.080;5.312;2022-09-01T06:27:31;4.41;;;2.6;;
34453;SDS011;60061;52.080;5.312;2022-09-01T06:29:09;4.5;;;2.9;;
34453;SDS011;60061;52.080;5.312;2022-09-01T06:30:50;3.9;;;3.1;;
34453;SDS011;60061;52.080;5.312;2022-09-01T06:34:05;5.9;;;3.0;;
34453;SDS011;60061;52.080;5.312;2022-09-01T06:35:46;5.0;;;3.1;;
34453;SDS011;60061;52.080;5.312;2022-09-01T06:37:22;4.1;;;2.9;;
34453;SDS011;60061;52.080;5.312;2022-09-01T06:40:41;3.1;;;2.6;;
34453;SDS011;60061;52.080;5.312;2022-09-01T06:42:18;5.2;;;3.2;;
34453;SDS011;60061;52.080;5.312;2022-09-01T06:43:55;4.2;;;2.8;;
34453;SDS011;60061;52.080;5.312;2022-09-01T06:45:33;4.41;;;2.8;;
34453;SDS011;60061;52.080;5.312;2022-09-01T06:48:50;4.5;;;3.7;;
34453;SDS011;60061;52.080;5.312;2022-09-01T06:50:27;4.2;;;2.9;;
34453;SDS011;60061;52.080;5.312;2022-09-01T06:52:03;5.8;;;2.9;;
34453;SDS011;60061;52.080;5.312;2022-09-01T06:55:17;6.2;;;3.0;;
34453;SDS011;60061;52.080;5.312;2022-09-01T06:56:53;6.4;;;3.2;;
34453;SDS011;60061;52.080;5.312;2022-09-01T06:58:30;5.3;;;2.9;;
34453;SDS011;60061;52.080;5.312;2022-09-01T07:00:08;9.6;;;3.2;;
34453;SDS011;60061;52.080;5.312;2022-09-01T07:03:24;6.3;;;3.1;;
34453;SDS011;60061;52.080;5.312;2022-09-01T07:05:01;6.7;;;3.0;;
34453;SDS011;60061;52.080;5.312;2022-09-01T07:06:38;6.6;;;2.9;;
34453;SDS011;60061;52.080;5.312;2022-09-01T07:09:57;3.8;;;2.8;;
34453;SDS011;60061;52.080;5.312;2022-09-01T07:11:33;4.91;;;2.7;;
34453;SDS011;60061;52.080;5.312;2022-09-01T07:13:10;5.3;;;2.7;;
34453;SDS011;60061;52.080;5.312;2022-09-01T07:14:48;6.4;;;2.8;;
34453;SDS011;60061;52.080;5.312;2022-09-01T07:18:03;4.41;;;2.8;;
34453;SDS011;60061;52.080;5.312;2022-09-01T07:19:39;4.91;;;2.8;;
34453;SDS011;60061;52.080;5.312;2022-09-01T07:21:15;7.1;;;2.8;;
34453;SDS011;60061;52.080;5.312;2022-09-01T07:24:32;6.0;;;2.6;;
34453;SDS011;60061;52.080;5.312;2022-09-01T07:26:17;4.41;;;2.5;;
34453;SDS011;60061;52.080;5.312;2022-09-01T07:27:56;4.2;;;2.4;;
34453;SDS011;60061;52.080;5.312;2022-09-01T07:29:34;4.8;;;2.31;;
34453;SDS011;60061;52.080;5.312;2022-09-01T07:32:59;8.1;;;2.4;;
34453;SDS011;60061;52.080;5.312;2022-09-01T07:34:40;4.2;;;2.4;;
34453;SDS011;60061;52.080;5.312;2022-09-01T07:36:17;4.3;;;2.31;;
34453;SDS011;60061;52.080;5.312;2022-09-01T07:37:55;3.6;;;2.21;;
34453;SDS011;60061;52.080;5.312;2022-09-01T07:41:07;3.9;;;2.31;;
34453;SDS011;60061;52.080;5.312;2022-09-01T07:42:43;8.31;;;2.31;;
34453;SDS011;60061;52.080;5.312;2022-09-01T07:44:20;3.4;;;2.0;;
34453;SDS011;60061;52.080;5.312;2022-09-01T07:47:38;5.8;;;2.1;;
34453;SDS011;60061;52.080;5.312;2022-09-01T07:49:15;3.8;;;2.1;;
34453;SDS011;60061;52.080;5.312;2022-09-01T07:50:52;3.6;;;1.7;;
34453;SDS011;60061;52.080;5.312;2022-09-01T07:52:30;5.11;;;1.9;;
34453;SDS011;60061;52.080;5.312;2022-09-01T07:55:50;2.9;;;1.6;;
34453;SDS011;60061;52.080;5.312;2022-09-01T07:57:30;3.1;;;1.6;;
34453;SDS011;60061;52.080;5.312;2022-09-01T07:59:08;1.7;;;1.6;;
34453;SDS011;60061;52.080;5.312;2022-09-01T08:00:46;4.2;;;1.8;;
34453;SDS011;60061;52.080;5.312;2022-09-01T08:04:01;4.8;;;1.6;;
34453;SDS011;60061;52.080;5.312;2022-09-01T08:05:37;4.0;;;1.5;;
34453;SDS011;60061;52.080;5.312;2022-09-01T08:07:14;4.1;;;1.6;;
34453;SDS011;60061;52.080;5.312;2022-09-01T08:10:32;4.41;;;1.7;;
34453;SDS011;60061;52.080;5.312;2022-09-01T08:12:09;2.8;;;1.5;;
34453;SDS011;60061;52.080;5.312;2022-09-01T08:13:46;2.4;;;1.4;;
34453;SDS011;60061;52.080;5.312;2022-09-01T08:15:23;1.9;;;1.3;;
34453;SDS011;60061;52.080;5.312;2022-09-01T08:18:37;2.31;;;1.4;;
34453;SDS011;60061;52.080;5.312;2022-09-01T08:20:13;2.7;;;1.5;;
34453;SDS011;60061;52.080;5.312;2022-09-01T08:21:50;4.1;;;1.4;;
34453;SDS011;60061;52.080;5.312;2022-09-01T08:25:03;3.1;;;1.3;;
34453;SDS011;60061;52.080;5.312;2022-09-01T08:26:40;4.8;;;1.5;;
34453;SDS011;60061;52.080;5.312;2022-09-01T08:28:16;3.7;;;1.5;;
34453;SDS011;60061;52.080;5.312;2022-09-01T08:31:30;8.1;;;1.7;;
34453;SDS011;60061;52.080;5.312;2022-09-01T08:33:07;3.8;;;1.6;;
34453;SDS011;60061;52.080;5.312;2022-09-01T08:34:44;2.31;;;1.4;;
34453;SDS011;60061;52.080;5.312;2022-09-01T08:36:19;2.9;;;1.6;;
34453;SDS011;60061;52.080;5.312;2022-09-01T08:39:35;2.8;;;1.4;;
34453;SDS011;60061;52.080;5.312;2022-09-01T08:41:13;2.31;;;1.3;;
34453;SDS011;60061;52.080;5.312;2022-09-01T08:42:57;4.2;;;1.3;;
34453;SDS011;60061;52.080;5.312;2022-09-01T08:44:47;2.4;;;1.3;;
34453;SDS011;60061;52.080;5.312;2022-09-01T08:48:16;4.1;;;1.4;;
34453;SDS011;60061;52.080;5.312;2022-09-01T08:49:57;3.5;;;1.5;;
34453;SDS011;60061;52.080;5.312;2022-09-01T08:51:36;1.9;;;1.2;;
34453;SDS011;60061;52.080;5.312;2022-09-01T08:53:19;5.11;;;1.5;;
34453;SDS011;60061;52.080;5.312;2022-09-01T08:56:50;6.1;;;1.4;;
34453;SDS011;60061;52.080;5.312;2022-09-01T08:58:31;1.2;;;1.11;;
34453;SDS011;60061;52.080;5.312;2022-09-01T09:00:09;2.5;;;1.2;;
34453;SDS011;60061;52.080;5.312;2022-09-01T09:01:51;6.1;;;1.2;;
34453;SDS011;60061;52.080;5.312;2022-09-01T09:03:37;3.2;;;1.2;;
34453;SDS011;60061;52.080;5.312;2022-09-01T09:07:09;1.8;;;1.2;;
34453;SDS011;60061;52.080;5.312;2022-09-01T09:08:55;1.8;;;1.2;;
34453;SDS011;60061;52.080;5.312;2022-09-01T09:10:37;5.2;;;1.3;;
34453;SDS011;60061;52.080;5.312;2022-09-01T09:12:33;2.6;;;1.11;;
34453;SDS011;60061;52.080;5.312;2022-09-01T09:14:33;6.4;;;1.4;;
34453;SDS011;60061;52.080;5.312;2022-09-01T09:16:26;3.4;;;1.11;;
34453;SDS011;60061;52.080;5.312;2022-09-01T09:18:11;8.9;;;1.4;;
34453;SDS011;60061;52.080;5.312;2022-09-01T09:21:42;4.7;;;1.3;;
34453;SDS011;60061;52.080;5.312;2022-09-01T09:23:23;3.2;;;1.5;;
34453;SDS011;60061;52.080;5.312;2022-09-01T09:25:08;6.1;;;1.4;;
34453;SDS011;60061;52.080;5.312;2022-09-01T09:26:47;2.5;;;1.11;;
34453;SDS011;60061;52.080;5.312;2022-09-01T09:30:00;4.1;;;1.5;;
34453;SDS011;60061;52.080;5.312;2022-09-01T09:33:38;1.9;;;1.2;;
34453;SDS011;60061;52.080;5.312;2022-09-01T09:35:16;2.9;;;1.2;;
34453;SDS011;60061;52.080;5.312;2022-09-01T09:37:01;4.3;;;1.2;;
34453;SDS011;60061;52.080;5.312;2022-09-01T09:40:56;1.5;;;1.11;;
34453;SDS011;60061;52.080;5.312;2022-09-01T09:42:39;3.4;;;1.2;;
34453;SDS011;60061;52.080;5.312;2022-09-01T09:44:20;3.5;;;1.3;;
34453;SDS011;60061;52.080;5.312;2022-09-01T09:46:35;2.6;;;1.11;;
34453;SDS011;60061;52.080;5.312;2022-09-01T09:48:25;2.6;;;0.9;;
34453;SDS011;60061;52.080;5.312;2022-09-01T09:50:13;2.1;;;1.11;;
34453;SDS011;60061;52.080;5.312;2022-09-01T09:51:55;2.1;;;1.2;;
34453;SDS011;60061;52.080;5.312;2022-09-01T09:53:46;1.8;;;1.2;;
34453;SDS011;60061;52.080;5.312;2022-09-01T09:57:08;3.1;;;1.2;;
34453;SDS011;60061;52.080;5.312;2022-09-01T09:58:47;2.7;;;1.11;;
34453;SDS011;60061;52.080;5.312;2022-09-01T10:00:26;2.31;;;1.11;;
34453;SDS011;60061;52.080;5.312;2022-09-01T10:02:16;2.4;;;1.2;;
34453;SDS011;60061;52.080;5.312;2022-09-01T10:04:30;5.4;;;1.11;;
34453;SDS011;60061;52.080;5.312;2022-09-01T10:07:50;2.0;;;1.3;;
34453;SDS011;60061;52.080;5.312;2022-09-01T10:09:35;1.6;;;0.9;;
34453;SDS011;60061;52.080;5.312;2022-09-01T10:11:24;0.8;;;0.8;;
34453;SDS011;60061;52.080;5.312;2022-09-01T10:13:04;1.7;;;1.0;;
34453;SDS011;60061;52.080;5.312;2022-09-01T10:14:47;2.7;;;1.11;;
34453;SDS011;60061;52.080;5.312;2022-09-01T10:18:08;1.0;;;0.9;;
34453;SDS011;60061;52.080;5.312;2022-09-01T10:19:51;4.0;;;0.9;;
34453;SDS011;60061;52.080;5.312;2022-09-01T10:21:32;1.6;;;1.0;;
34453;SDS011;60061;52.080;5.312;2022-09-01T10:23:12;3.9;;;1.11;;
34453;SDS011;60061;52.080;5.312;2022-09-01T10:26:25;7.2;;;1.3;;
34453;SDS011;60061;52.080;5.312;2022-09-01T10:28:08;3.5;;;1.0;;
34453;SDS011;60061;52.080;5.312;2022-09-01T10:29:51;3.2;;;1.0;;
34453;SDS011;60061;52.080;5.312;2022-09-01T10:31:32;3.1;;;1.11;;
34453;SDS011;60061;52.080;5.312;2022-09-01T10:34:50;1.8;;;0.9;;
34453;SDS011;60061;52.080;5.312;2022-09-01T10:36:28;2.7;;;1.3;;
34453;SDS011;60061;52.080;5.312;2022-09-01T10:38:06;2.21;;;1.3;;
34453;SDS011;60061;52.080;5.312;2022-09-01T10:40:18;1.2;;;1.11;;
34453;SDS011;60061;52.080;5.312;2022-09-01T10:42:15;1.7;;;1.0;;
34453;SDS011;60061;52.080;5.312;2022-09-01T10:45:30;2.21;;;1.0;;
34453;SDS011;60061;52.080;5.312;2022-09-01T10:47:09;4.41;;;1.2;;
34453;SDS011;60061;52.080;5.312;2022-09-01T10:48:59;1.0;;;1.0;;
34453;SDS011;60061;52.080;5.312;2022-09-01T10:50:35;2.0;;;1.0;;
34453;SDS011;60061;52.080;5.312;2022-09-01T10:54:50;2.31;;;1.3;;
34453;SDS011;60061;52.080;5.312;2022-09-01T10:56:36;3.1;;;1.2;;
34453;SDS011;60061;52.080;5.312;2022-09-01T11:00:52;2.31;;;1.2;;
34453;SDS011;60061;52.080;5.312;2022-09-01T11:02:29;2.7;;;1.3;;
34453;SDS011;60061;52.080;5.312;2022-09-01T11:04:06;2.8;;;1.3;;
34453;SDS011;60061;52.080;5.312;2022-09-01T11:05:59;2.5;;;1.2;;
34453;SDS011;60061;52.080;5.312;2022-09-01T11:07:37;3.0;;;1.11;;
34453;SDS011;60061;52.080;5.312;2022-09-01T11:09:18;1.8;;;1.3;;
34453;SDS011;60061;52.080;5.312;2022-09-01T11:12:46;3.5;;;1.11;;
34453;SDS011;60061;52.080;5.312;2022-09-01T11:14:46;1.5;;;1.11;;
34453;SDS011;60061;52.080;5.312;2022-09-01T11:16:29;3.3;;;1.2;;
34453;SDS011;60061;52.080;5.312;2022-09-01T11:18:13;2.4;;;1.3;;
34453;SDS011;60061;52.080;5.312;2022-09-01T11:19:55;2.5;;;1.11;;
34453;SDS011;60061;52.080;5.312;2022-09-01T11:21:43;5.0;;;1.4;;
34453;SDS011;60061;52.080;5.312;2022-09-01T11:25:34;2.6;;;1.3;;
34453;SDS011;60061;52.080;5.312;2022-09-01T11:27:54;2.1;;;1.2;;
34453;SDS011;60061;52.080;5.312;2022-09-01T11:29:50;3.0;;;1.3;;
34453;SDS011;60061;52.080;5.312;2022-09-01T11:31:31;1.3;;;1.0;;
34453;SDS011;60061;52.080;5.312;2022-09-01T11:33:20;3.9;;;1.11;;
34453;SDS011;60061;52.080;5.312;2022-09-01T11:35:12;1.6;;;1.0;;
34453;SDS011;60061;52.080;5.312;2022-09-01T11:36:55;1.11;;;1.0;;
34453;SDS011;60061;52.080;5.312;2022-09-01T11:38:37;7.2;;;1.5;;
34453;SDS011;60061;52.080;5.312;2022-09-01T11:42:02;9.21;;;1.5;;
34453;SDS011;60061;52.080;5.312;2022-09-01T11:43:45;4.8;;;1.5;;
34453;SDS011;60061;52.080;5.312;2022-09-01T11:45:23;1.6;;;1.0;;
34453;SDS011;60061;52.080;5.312;2022-09-01T11:47:03;4.91;;;1.2;;
34453;SDS011;60061;52.080;5.312;2022-09-01T11:50:22;6.2;;;1.0;;
34453;SDS011;60061;52.080;5.312;2022-09-01T11:52:02;3.5;;;1.0;;
34453;SDS011;60061;52.080;5.312;2022-09-01T11:53:40;2.7;;;0.9;;
34453;SDS011;60061;52.080;5.312;2022-09-01T11:55:27;2.7;;;0.9;;
34453;SDS011;60061;52.080;5.312;2022-09-01T11:59:02;3.3;;;0.9;;
34453;SDS011;60061;52.080;5.312;2022-09-01T12:00:40;2.7;;;1.0;;
34453;SDS011;60061;52.080;5.312;2022-09-01T12:02:18;4.3;;;1.2;;
34453;SDS011;60061;52.080;5.312;2022-09-01T12:04:06;3.3;;;0.9;;
34453;SDS011;60061;52.080;5.312;2022-09-01T12:05:59;2.8;;;1.11;;
34453;SDS011;60061;52.080;5.312;2022-09-01T12:07:40;11.1;;;1.6;;
34453;SDS011;60061;52.080;5.312;2022-09-01T12:11:01;7.1;;;1.11;;
34453;SDS011;60061;52.080;5.312;2022-09-01T12:12:40;2.31;;;1.11;;
34453;SDS011;60061;52.080;5.312;2022-09-01T12:14:19;2.1;;;1.0;;
34453;SDS011;60061;52.080;5.312;2022-09-01T12:17:35;2.1;;;0.9;;
34453;SDS011;60061;52.080;5.312;2022-09-01T12:19:21;3.2;;;0.8;;
34453;SDS011;60061;52.080;5.312;2022-09-01T12:21:02;2.21;;;1.0;;
34453;SDS011;60061;52.080;5.312;2022-09-01T12:22:41;5.2;;;1.0;;
34453;SDS011;60061;52.080;5.312;2022-09-01T12:25:59;5.2;;;1.0;;
34453;SDS011;60061;52.080;5.312;2022-09-01T12:27:37;2.4;;;0.8;;
34453;SDS011;60061;52.080;5.312;2022-09-01T12:29:13;13.8;;;1.7;;
34453;SDS011;60061;52.080;5.312;2022-09-01T12:30:53;2.6;;;1.11;;
34453;SDS011;60061;52.080;5.312;2022-09-01T12:34:20;3.9;;;1.0;;
34453;SDS011;60061;52.080;5.312;2022-09-01T12:36:19;3.6;;;1.2;;
34453;SDS011;60061;52.080;5.312;2022-09-01T12:38:20;8.71;;;1.4;;
34453;SDS011;60061;52.080;5.312;2022-09-01T12:40:16;4.0;;;1.3;;
34453;SDS011;60061;52.080;5.312;2022-09-01T12:42:00;1.0;;;0.9;;
34453;SDS011;60061;52.080;5.312;2022-09-01T12:43:44;3.9;;;1.11;;
34453;SDS011;60061;52.080;5.312;2022-09-01T12:45:37;4.2;;;1.0;;
34453;SDS011;60061;52.080;5.312;2022-09-01T12:49:32;2.31;;;1.2;;
34453;SDS011;60061;52.080;5.312;2022-09-01T12:52:54;1.4;;;1.0;;
34453;SDS011;60061;52.080;5.312;2022-09-01T12:54:33;2.5;;;1.0;;
34453;SDS011;60061;52.080;5.312;2022-09-01T12:56:15;2.1;;;1.0;;
34453;SDS011;60061;52.080;5.312;2022-09-01T12:58:25;2.4;;;1.0;;
34453;SDS011;60061;52.080;5.312;2022-09-01T13:00:05;3.6;;;1.0;;
34453;SDS011;60061;52.080;5.312;2022-09-01T13:03:26;2.31;;;1.0;;
34453;SDS011;60061;52.080;5.312;2022-09-01T13:05:20;1.11;;;1.0;;
34453;SDS011;60061;52.080;5.312;2022-09-01T13:07:02;0.8;;;0.8;;
34453;SDS011;60061;52.080;5.312;2022-09-01T13:08:43;1.7;;;1.2;;